Latest Weather Observations for Swan Island

IDT60801

Issued at 8:05 am EST Sunday 20 April 2014 (issued every 30 minutes, with the page automatically refreshed every 10 minutes)

About weather observations | Map of weather stations | Latest weather observations for TAS | Other Formats
Station Details ID: 092123 Name: SWAN ISLAND Lat: -40.73 Lon: 148.12 Height: 15.0 m
Data from the previous 72 hours. | See also: Recent months at Swan Island
Date/Time
EST
Temp
°C
App
Temp
°C
Dew
Point
Rel
Hum
%
Delta-T
°C
Wind Press
QNH
hPa
Press
MSL
hPa
Rain
since 9 am
mm
Dir
 
Spd
km/h
Gust
km/h
Spd
kts
Gust
kts
20/08:00am 11.7 8.9 11.2 97 0.3 WSW 17 24 9 13 1014.0 1013.9 0.4
20/07:30am 12.3 10.4 10.5 89 0.9 W 11 15 6 8 1013.8 - 0.0
20/07:00am 12.4 10.4 10.0 85 1.2 W 11 17 6 9 1013.7 1013.6 0.0
20/06:30am 11.4 9.4 8.6 83 1.4 WSW 9 15 5 8 1013.5 - 0.0
20/06:00am 11.4 8.8 7.7 78 1.8 WSW 11 19 6 10 1013.5 1013.4 0.0
20/05:30am 11.9 9.0 8.0 77 1.9 WSW 13 22 7 12 1013.5 - 0.0
20/05:00am 12.4 9.2 8.3 76 2.0 W 15 26 8 14 1013.4 1013.3 0.0
20/04:30am 11.8 8.4 7.5 75 2.1 WSW 15 20 8 11 1013.4 - 0.0
20/04:00am 12.1 8.4 8.0 76 2.0 WSW 17 24 9 13 1013.3 1013.2 0.0
20/03:30am 12.6 7.6 8.1 74 2.2 WSW 24 35 13 19 1013.3 - 0.0
20/03:00am 13.5 7.1 8.4 71 2.5 W 32 44 17 24 1013.2 1013.1 0.0
20/02:30am 13.6 8.6 8.0 69 2.8 WNW 24 39 13 21 1013.4 - 0.0
20/02:00am 13.4 8.7 7.8 69 2.8 WNW 22 37 12 20 1013.6 1013.5 0.0
20/01:30am 13.5 7.9 7.1 65 3.1 WNW 26 39 14 21 1014.0 - 0.0
20/01:00am 13.4 8.0 6.5 63 3.3 WNW 24 37 13 20 1014.1 1014.0 0.0
20/12:30am 13.2 9.0 7.6 69 2.7 WNW 19 28 10 15 1014.4 - 0.0
20/12:00am 13.5 8.8 7.7 68 2.9 WNW 22 35 12 19 1014.5 1014.4 0.0
 
Date/Time
EST
Temp
°C
App
Temp
°C
Dew
Point
Rel
Hum
%
Delta-T
°C
Wind Press
QNH
hPa
Press
MSL
hPa
Rain
since 9 am
mm
Dir
 
Spd
km/h
Gust
km/h
Spd
kts
Gust
kts
19/11:30pm 13.8 10.4 7.6 66 3.1 WNW 15 28 8 15 1014.6 - 0.0
19/11:00pm 13.9 10.1 7.4 65 3.2 WNW 17 26 9 14 1014.7 1014.6 0.0
19/10:30pm 13.2 10.8 7.2 67 2.9 WNW 9 15 5 8 1015.0 - 0.0
19/10:00pm 12.7 9.4 6.5 66 3.0 W 13 17 7 9 1015.3 1015.2 0.0
19/09:30pm 13.3 9.9 7.7 69 2.8 WNW 15 20 8 11 1015.4 - 0.0
19/09:00pm 13.6 10.8 8.4 71 2.6 WNW 13 22 7 12 1015.4 1015.3 0.0
19/08:30pm 13.2 10.4 7.0 66 3.0 WNW 11 19 6 10 1015.4 - 0.0
19/08:00pm 13.2 10.1 7.2 67 2.9 WNW 13 17 7 9 1015.3 1015.2 0.0
19/07:30pm 12.8 10.0 7.0 68 2.8 WNW 11 17 6 9 1015.3 - 0.0
19/07:00pm 12.9 9.9 7.8 71 2.5 WNW 13 19 7 10 1015.5 1015.4 0.0
19/06:30pm 12.8 10.1 7.5 70 2.6 WNW 11 19 6 10 1015.3 - 0.0
19/06:00pm 13.0 10.0 7.9 71 2.5 WNW 13 19 7 10 1015.1 1015.0 0.0
19/05:30pm 13.2 9.7 7.4 68 2.8 WNW 15 20 8 11 1015.0 - 0.0
19/05:00pm 13.7 10.2 7.2 65 3.2 WNW 15 22 8 12 1014.9 1014.8 0.0
19/04:30pm 14.4 11.0 7.5 63 3.4 WNW 15 24 8 13 1014.9 - 0.0
19/04:00pm 14.9 11.1 7.5 61 3.7 WNW 17 24 9 13 1015.0 1014.9 0.0
19/03:30pm 15.2 11.3 7.3 59 3.9 WNW 17 22 9 12 1015.0 - 0.0
19/03:00pm 15.9 12.5 7.7 58 4.1 WNW 15 26 8 14 1014.9 1014.8 0.0
19/02:30pm 15.7 11.4 7.2 57 4.2 WNW 19 26 10 14 1014.8 - 0.0
19/02:00pm 16.2 12.0 7.4 56 4.4 WNW 19 26 10 14 1014.8 1014.7 0.0
19/01:30pm 16.3 12.5 7.5 56 4.4 W 17 26 9 14 1014.9 - 0.0
19/01:00pm 15.9 12.3 6.6 54 4.5 W 15 24 8 13 1015.2 1015.1 0.0
19/12:30pm 16.0 12.5 7.2 56 4.4 W 15 24 8 13 1015.5 - 0.0
19/12:00pm 15.7 12.0 6.4 54 4.5 W 15 24 8 13 1015.7 1015.6 0.0
19/11:30am 15.2 11.2 6.5 56 4.2 W 17 26 9 14 1015.9 - 0.0
19/11:00am 14.8 10.3 6.9 59 3.9 W 20 26 11 14 1016.0 1015.9 0.0
19/10:30am 14.3 10.3 6.6 60 3.7 W 17 24 9 13 1016.0 - 0.0
19/10:00am 14.1 10.4 6.5 60 3.7 W 15 24 8 13 1016.1 1016.0 0.0
19/09:30am 13.6 10.0 6.7 63 3.3 W 15 22 8 12 1016.1 - 0.0
19/09:00am 12.9 9.2 6.3 64 3.1 W 15 24 8 13 1015.9 1015.8 0.8
19/08:30am 12.4 9.1 6.2 66 2.9 WSW 13 20 7 11 1015.9 - 0.8
19/08:00am 11.3 7.9 5.8 69 2.6 WSW 13 20 7 11 1015.8 1015.7 0.8
19/07:30am 10.4 7.4 6.0 74 2.0 WSW 11 17 6 9 1015.4 - 0.8
19/07:00am 10.1 5.8 5.1 71 2.3 WSW 17 24 9 13 1015.0 1014.9 0.8
19/06:30am 9.8 5.5 5.2 73 2.1 WSW 17 24 9 13 1014.8 - 0.8
19/06:00am 9.5 5.3 5.5 76 1.8 WSW 17 24 9 13 1014.6 1014.5 0.8
19/05:30am 9.2 5.8 5.8 79 1.6 WSW 13 20 7 11 1014.5 - 0.8
19/05:00am 9.1 5.7 6.0 81 1.4 WSW 13 17 7 9 1014.4 1014.3 0.8
19/04:30am 9.2 5.8 6.1 81 1.4 WSW 13 20 7 11 1014.1 - 0.8
19/04:00am 9.6 5.6 6.7 82 1.4 WSW 17 26 9 14 1014.0 1013.9 0.8
19/03:30am 9.8 5.8 6.7 81 1.5 WSW 17 26 9 14 1013.8 - 0.8
19/03:00am 10.0 6.1 6.9 81 1.5 WSW 17 24 9 13 1013.9 1013.8 0.8
19/02:30am 10.1 6.1 6.8 80 1.6 WSW 17 26 9 14 1013.9 - 0.8
19/02:00am 9.9 5.5 6.6 80 1.5 WSW 19 26 10 14 1013.7 1013.6 0.8
19/01:30am 10.2 5.8 6.5 78 1.7 WSW 19 28 10 15 1013.7 - 0.8
19/01:00am 9.9 5.8 6.3 78 1.7 WSW 17 20 9 11 1013.7 1013.6 0.8
19/12:30am 10.6 5.5 6.2 74 2.0 WSW 22 33 12 18 1013.6 - 0.8
19/12:00am 10.4 6.0 6.4 76 1.9 WSW 19 26 10 14 1013.6 1013.5 0.8
 
Date/Time
EST
Temp
°C
App
Temp
°C
Dew
Point
Rel
Hum
%
Delta-T
°C
Wind Press
QNH
hPa
Press
MSL
hPa
Rain
since 9 am
mm
Dir
 
Spd
km/h
Gust
km/h
Spd
kts
Gust
kts
18/11:30pm 10.7 6.8 7.0 78 1.8 WSW 17 26 9 14 1013.5 - 0.8
18/11:00pm 10.9 7.3 6.8 76 1.9 WSW 15 22 8 12 1013.5 1013.4 0.8
18/10:30pm 11.5 7.2 7.2 75 2.1 W 19 32 10 17 1013.2 - 0.8
18/10:00pm 11.9 7.5 7.4 74 2.2 WSW 20 30 11 16 1013.4 1013.3 0.8
18/09:30pm 12.1 7.9 7.4 73 2.3 WSW 19 28 10 15 1013.2 - 0.8
18/09:00pm 12.7 8.4 8.0 73 2.3 WSW 20 33 11 18 1012.9 1012.8 0.8
18/08:30pm 13.2 8.6 8.3 72 2.4 W 22 35 12 19 1012.2 - 0.8
18/08:00pm 13.4 8.6 7.2 66 3.0 WSW 22 32 12 17 1012.3 1012.2 0.8
18/07:30pm 13.7 9.4 7.9 68 2.9 WSW 20 32 11 17 1011.9 - 0.8
18/07:00pm 14.0 9.3 7.8 66 3.1 WSW 22 35 12 19 1011.5 1011.4 0.8
18/06:30pm 14.2 9.5 7.9 66 3.1 WSW 22 35 12 19 1011.1 - 0.8
18/06:00pm 14.3 10.9 9.3 72 2.6 W 17 28 9 15 1010.3 1010.3 0.8
18/05:30pm 14.1 11.5 9.3 73 2.5 WSW 13 22 7 12 1009.9 - 0.8
18/05:00pm 14.9 11.4 10.1 73 2.5 W 19 24 10 13 1009.5 1009.5 0.8
18/04:30pm 15.8 11.8 10.6 71 2.8 W 22 39 12 21 1008.9 - 0.8
18/04:00pm 16.0 11.8 11.2 73 2.6 W 24 37 13 20 1008.5 1008.5 0.8
18/03:30pm 15.8 9.9 11.2 74 2.5 W 33 52 18 28 1007.7 - 0.8
18/03:27pm 15.7 9.8 11.3 75 2.4 W 33 54 18 29 1007.7 - 0.8
18/03:00pm 15.2 9.2 12.0 81 1.7 W 35 48 19 26 1007.0 1007.0 0.8
18/02:30pm 14.5 8.7 12.7 89 1.0 W 35 54 19 29 1006.8 - 0.8
18/02:27pm 14.6 9.3 13.0 90 0.9 W 33 54 18 29 1006.8 - 0.8
18/02:00pm 14.0 9.1 12.6 91 0.8 W 30 46 16 25 1006.9 1006.9 0.8
18/01:55pm 13.9 9.5 12.8 93 0.6 WNW 28 41 15 22 1007.0 - 0.8
18/01:30pm 14.0 12.5 13.1 94 0.5 W 13 19 7 10 1007.2 - 0.4
18/01:00pm 15.1 12.5 13.1 88 1.1 WSW 19 33 10 18 1007.4 1007.4 0.0
18/12:30pm 15.3 10.0 13.2 87 1.2 WSW 33 48 18 26 1007.7 - 0.0
18/12:12pm 15.3 10.3 15.0 98 0.2 W 35 54 19 29 1007.9 - 0.0
18/12:00pm 15.9 9.1 15.9 100 0.0 W 46 59 25 32 1007.6 1007.6 0.0
18/11:57am 15.7 8.5 15.7 100 0.0 W 48 59 26 32 1007.6 - 0.0
18/11:30am 17.2 12.6 17.2 100 0.0 WNW 37 57 20 31 1007.7 - 0.0
18/11:24am 17.3 14.1 17.3 100 0.0 WNW 30 48 16 26 1007.9 - 0.0
18/11:00am 17.5 15.2 17.5 100 0.0 NW 26 37 14 20 1008.4 1008.4 0.0
18/10:30am 17.5 14.4 17.5 100 0.0 NW 30 39 16 21 1008.9 - 0.0
18/10:00am 18.4 15.1 18.4 100 0.0 NNW 33 39 18 21 1009.1 1009.1 0.0
18/09:30am 18.1 16.0 18.1 100 0.0 N 26 30 14 16 1009.4 - 0.0
18/09:00am 17.8 16.0 17.8 100 0.0 N 24 28 13 15 1010.0 1010.0 0.0
18/08:30am 17.5 15.9 17.5 100 0.0 N 22 28 12 15 1010.9 - 0.0
18/08:00am 16.6 14.7 16.6 100 0.0 N 22 28 12 15 1011.2 1011.1 0.0
18/07:30am 16.5 14.5 16.5 100 0.0 N 22 28 12 15 1011.7 - 0.0
18/07:00am 16.3 14.6 16.3 100 0.0 N 20 26 11 14 1011.8 1011.7 0.0
18/06:30am 16.2 14.1 16.2 100 0.0 N 22 26 12 14 1011.9 - 0.0
18/06:00am 16.2 14.5 16.2 100 0.0 N 20 24 11 13 1012.2 1012.1 0.0
18/05:30am 16.1 14.0 16.1 100 0.0 N 22 26 12 14 1012.6 - 0.0
18/05:00am 16.0 13.8 16.0 100 0.0 N 22 26 12 14 1012.9 1012.8 0.0
18/04:30am 16.0 13.8 16.0 100 0.0 N 22 26 12 14 1013.1 - 0.0
18/04:00am 15.7 13.8 15.7 100 0.0 N 20 24 11 13 1013.3 1013.2 0.0
18/03:30am 15.6 13.8 15.6 100 0.0 N 19 22 10 12 1013.7 - 0.0
18/03:00am 15.6 13.8 15.6 100 0.0 N 19 22 10 12 1014.3 1014.2 0.0
18/02:30am 15.4 13.9 15.4 100 0.0 N 17 20 9 11 1014.6 - 0.0
18/02:00am 15.4 14.3 15.4 100 0.0 N 15 20 8 11 1014.8 1014.7 0.0
18/01:30am 15.5 14.1 15.5 100 0.0 N 17 19 9 10 1015.4 - 0.0
18/01:00am 15.6 13.8 15.6 100 0.0 N 19 22 10 12 1015.7 1015.6 0.0
18/12:30am 15.6 13.8 15.6 100 0.0 N 19 22 10 12 1016.0 - 0.0
18/12:00am 15.7 14.0 15.7 100 0.0 N 19 20 10 11 1016.7 1016.6 0.0
 
Date/Time
EST
Temp
°C
App
Temp
°C
Dew
Point
Rel
Hum
%
Delta-T
°C
Wind Press
QNH
hPa
Press
MSL
hPa
Rain
since 9 am
mm
Dir
 
Spd
km/h
Gust
km/h
Spd
kts
Gust
kts
17/11:30pm 16.0 14.8 16.0 100 0.0 N 17 20 9 11 1017.0 - 0.0
17/11:00pm 16.1 15.3 16.1 100 0.0 N 15 17 8 9 1017.5 1017.4 0.0
17/10:30pm 15.8 14.9 15.8 100 0.0 N 15 19 8 10 1017.9 - 0.0
17/10:00pm 15.6 16.1 15.6 100 0.0 N 7 9 4 5 1018.3 1018.2 0.0
17/09:30pm 15.3 15.9 15.3 100 0.0 NNW 6 7 3 4 1018.3 - 0.0
17/09:00pm 15.4 16.4 15.4 100 0.0 NW 4 6 2 3 1018.5 1018.4 0.0
17/08:30pm 15.2 15.8 15.2 100 0.0 NW 6 7 3 4 1018.5 - 0.0
17/08:00pm 15.4 15.8 15.4 100 0.0 NW 7 9 4 5 1018.6 1018.5 0.0
17/07:30pm 15.5 16.0 14.9 96 0.3 N 6 6 3 3 1018.5 - 0.0
17/07:00pm 16.1 16.6 15.5 96 0.3 N 7 9 4 5 1018.6 1018.5 0.0
17/06:30pm 16.3 16.9 15.8 97 0.3 NNW 7 9 4 5 1018.5 - 0.0
17/06:00pm 16.2 16.6 15.4 95 0.5 N 7 9 4 5 1018.5 1018.4 0.0
17/05:30pm 16.7 17.0 15.1 90 0.9 ENE 7 11 4 6 1018.5 - 0.0
17/05:00pm 17.0 16.5 15.0 88 1.2 NE 11 13 6 7 1018.6 1018.5 0.0
17/04:30pm 17.2 17.0 14.7 85 1.4 NE 9 11 5 6 1018.8 - 0.0
17/04:00pm 17.6 17.4 14.7 83 1.7 NE 9 11 5 6 1019.0 1018.9 0.0
17/03:30pm 17.9 17.7 14.8 82 1.8 NE 9 11 5 6 1019.2 - 0.0
17/03:00pm 18.4 18.4 15.1 81 1.9 NE 9 11 5 6 1019.4 1019.3 0.0
17/02:30pm 18.4 18.9 15.6 84 1.6 ENE 7 11 4 6 1019.6 - 0.0
17/02:00pm 18.6 19.3 16.2 86 1.4 ENE 7 9 4 5 1019.7 1019.6 0.0
17/01:30pm 18.7 19.6 16.5 87 1.3 E 7 9 4 5 1019.9 - 0.0
17/01:00pm 18.7 19.8 17.0 90 1.0 E 7 9 4 5 1020.2 1020.1 0.0
17/12:30pm 18.9 20.2 17.6 92 0.8 E 7 9 4 5 1020.6 - 0.0
17/12:00pm 19.1 20.6 18.1 94 0.6 E 7 9 4 5 1020.9 1020.8 0.0
17/11:30am 18.4 19.5 17.2 93 0.7 E 7 9 4 5 1021.1 - 0.0
17/11:00am 17.6 18.7 16.6 94 0.6 ESE 6 7 3 4 1021.4 1021.3 0.0
17/10:30am 17.1 18.3 16.9 99 0.1 SE 6 9 3 5 1021.5 - 0.0
17/10:00am 17.4 18.6 17.4 100 0.0 SSE 7 9 4 5 1021.4 1021.3 0.0
17/09:30am 16.6 17.5 16.6 100 0.0 SSE 7 9 4 5 1021.5 - 0.0
17/09:00am 15.8 16.0 15.8 100 0.0 S 9 13 5 7 1021.4 1021.3 0.6
17/08:30am 15.4 15.5 15.4 100 0.0 S 9 13 5 7 1021.3 - 0.6

Other Formats:

Comma delimited format used in spreadsheet applications
http://www.bom.gov.au/fwo/IDT60801/IDT60801.95985.axf

JavaScript Object Notation format (JSON) in row-major order
http://www.bom.gov.au/fwo/IDT60801/IDT60801.95985.json